Time;durP1;ratioP1;P1;durP2;ratioP2;P2;SDS_P1;SDS_P2;PMS_P1;PMS_P2;Temp;Humidity;BMP_temperature;BMP_pressure;BME280_temperature;BME280_humidity;BME280_pressure;Samples;Min_cycle;Max_cycle;Signal;HPM_P1;HPM_P2
2021/08/09 00:02:42;;;;;;;2.65;0.82;;;;;;;15.55;60.04;100233.88;10501145;28;20036;-71
2021/08/09 00:07:44;;;;;;;1.35;0.88;;;;;;;15.55;60.35;100242.69;10483444;28;20098;-72
2021/08/09 00:12:46;;;;;;;1.70;0.57;;;;;;;15.55;59.22;100232.09;10501380;28;20416;-70
2021/08/09 00:17:48;;;;;;;0.63;0.50;;;;;;;15.48;59.36;100238.63;10500651;28;20090;-71
2021/08/09 00:22:50;;;;;;;0.90;0.70;;;;;;;15.43;58.96;100229.19;10500823;28;20049;-70
2021/08/09 00:27:53;;;;;;;1.75;0.60;;;;;;;15.61;58.19;100228.28;10499791;28;20044;-71
2021/08/09 00:32:54;;;;;;;1.63;0.68;;;;;;;15.52;58.37;100236.69;10482155;28;20118;-72
2021/08/09 00:37:56;;;;;;;1.42;0.70;;;;;;;15.62;57.95;100237.94;10481296;28;20446;-71
2021/08/09 00:42:57;;;;;;;0.82;0.70;;;;;;;15.58;57.65;100239.91;10499617;28;20426;-71
2021/08/09 00:48:00;;;;;;;1.10;0.60;;;;;;;15.43;58.77;100250.38;10481078;28;20128;-71
2021/08/09 00:53:02;;;;;;;1.00;0.60;;;;;;;15.43;58.71;100250.38;10480675;28;20041;-71
2021/08/09 00:58:06;;;;;;;2.00;0.68;;;;;;;15.53;57.93;100254.28;10480491;28;20055;-70
2021/08/09 01:03:08;;;;;;;0.90;0.60;;;;;;;15.47;58.33;100257.25;10481651;28;20421;-70
2021/08/09 01:08:34;;;;;;;1.77;0.73;;;;;;;15.35;58.72;100256.03;10480666;28;20163;-71
2021/08/09 01:14:12;;;;;;;1.80;0.80;;;;;;;15.34;58.37;100255.19;10481898;28;20367;-70
2021/08/09 01:19:38;;;;;;;1.67;0.80;;;;;;;15.29;58.28;100261.63;10466096;28;20045;-71
2021/08/09 01:25:20;;;;;;;1.05;0.50;;;;;;;15.40;58.07;100269.91;10480296;28;20049;-70
2021/08/09 01:30:25;;;;;;;1.70;0.60;;;;;;;15.31;58.21;100268.56;10480853;28;20045;-70
2021/08/09 01:35:30;;;;;;;1.20;0.63;;;;;;;15.26;58.63;100264.41;10480828;28;20041;-71
2021/08/09 01:40:35;;;;;;;2.78;0.80;;;;;;;15.13;59.00;100270.28;10480604;28;20040;-70
2021/08/09 01:45:38;;;;;;;2.50;0.70;;;;;;;15.02;59.33;100264.66;10479758;28;20438;-71
2021/08/09 01:50:41;;;;;;;1.70;0.70;;;;;;;15.00;59.35;100258.53;10478883;28;20044;-71
2021/08/09 01:55:45;;;;;;;2.10;0.55;;;;;;;15.02;59.38;100261.16;10464173;28;20063;-70
2021/08/09 02:00:48;;;;;;;0.98;0.52;;;;;;;14.91;59.31;100258.97;10479800;28;20375;-70
2021/08/09 02:05:50;;;;;;;2.70;0.68;;;;;;;14.96;59.04;100264.06;10496989;28;20055;-70
2021/08/09 02:11:00;;;;;;;3.47;0.70;;;;;;;14.96;58.73;100266.69;10478312;28;20415;-70
2021/08/09 02:16:08;;;;;;;1.50;0.60;;;;;;;14.99;58.62;100267.44;10461952;28;20048;-71
2021/08/09 02:21:25;;;;;;;3.25;0.88;;;;;;;15.02;58.71;100271.72;10478232;28;20048;-71
2021/08/09 02:26:31;;;;;;;1.80;0.60;;;;;;;14.96;59.02;100272.84;10461709;28;20052;-70
2021/08/09 02:31:36;;;;;;;;;;;;;;;15.04;58.73;100273.38;10478509;28;20064;-70
2021/08/09 02:36:39;;;;;;;1.38;0.70;;;;;;;14.95;59.18;100275.56;10479827;28;19921;-72
2021/08/09 02:41:43;;;;;;;1.67;0.65;;;;;;;14.93;59.30;100285.41;10478222;28;20521;-72
2021/08/09 02:46:45;;;;;;;1.00;0.60;;;;;;;14.93;59.36;100294.19;10497997;28;20083;-71
2021/08/09 02:51:48;;;;;;;2.60;0.52;;;;;;;14.66;60.78;100293.66;10497043;28;20105;-70
2021/08/09 02:56:51;;;;;;;1.63;0.70;;;;;;;14.48;61.21;100282.09;10497156;28;20055;-71
2021/08/09 03:01:53;;;;;;;1.05;0.75;;;;;;;14.44;61.65;100290.19;10498325;28;20094;-71
2021/08/09 03:06:56;;;;;;;2.33;0.77;;;;;;;14.29;62.15;100281.97;10497452;28;20087;-71
2021/08/09 03:11:58;;;;;;;2.15;0.80;;;;;;;14.26;62.28;100286.56;10506665;22;20230;-70
2021/08/09 03:17:02;;;;;;;1.08;0.75;;;;;;;14.19;62.81;100290.38;10473245;28;20128;-71
2021/08/09 03:22:04;;;;;;;1.55;0.80;;;;;;;14.26;62.43;100289.22;10473215;28;20362;-70
2021/08/09 03:27:09;;;;;;;2.22;0.70;;;;;;;14.19;62.91;100296.53;10478848;28;20154;-71
2021/08/09 03:32:11;;;;;;;1.42;0.80;;;;;;;14.13;62.91;100291.50;10480714;28;20044;-71
2021/08/09 03:37:12;;;;;;;1.73;0.90;;;;;;;14.13;62.96;100291.50;10499546;28;20121;-71
2021/08/09 03:42:14;;;;;;;1.88;0.90;;;;;;;14.14;62.94;100299.38;10480872;28;20083;-71
2021/08/09 03:47:16;;;;;;;2.05;1.00;;;;;;;14.18;63.05;100292.16;10498644;28;20048;-71
2021/08/09 03:52:17;;;;;;;1.85;0.80;;;;;;;14.30;62.76;100296.94;10479952;28;20497;-70
2021/08/09 03:57:19;;;;;;;1.98;0.80;;;;;;;14.30;62.79;100302.22;10497623;28;20462;-71
2021/08/09 04:02:29;;;;;;;1.95;0.80;;;;;;;14.21;63.30;100299.09;10480059;28;20343;-72
2021/08/09 04:07:50;;;;;;;3.47;1.15;;;;;;;14.21;63.30;100310.56;10479923;28;20044;-71
2021/08/09 04:12:54;;;;;;;3.10;1.00;;;;;;;14.08;64.08;100310.22;10463265;28;20040;-72
2021/08/09 04:17:58;;;;;;;1.90;0.90;;;;;;;14.17;63.90;100308.97;10479667;28;20447;-71
2021/08/09 04:23:00;;;;;;;2.08;0.90;;;;;;;14.17;64.05;100305.47;10463724;28;20142;-71
2021/08/09 04:28:02;;;;;;;2.45;0.93;;;;;;;14.38;63.58;100305.38;10496853;28;20524;-70
2021/08/09 04:33:04;;;;;;;3.53;0.95;;;;;;;14.35;64.02;100310.81;10477882;28;20064;-70
2021/08/09 04:38:26;;;;;;;1.90;0.80;;;;;;;14.45;64.39;100308.63;10477845;28;20492;-71
2021/08/09 04:43:28;;;;;;;2.17;0.88;;;;;;;14.44;63.78;100303.41;10477816;28;20048;-71
2021/08/09 04:48:31;;;;;;;2.05;1.10;;;;;;;14.60;64.00;100305.34;10478046;28;20122;-71
2021/08/09 04:53:32;;;;;;;1.63;0.75;;;;;;;14.82;63.15;100313.19;10477353;28;20044;-71
2021/08/09 04:58:34;;;;;;;1.38;0.65;;;;;;;14.86;63.30;100317.41;10477065;28;20140;-71
2021/08/09 05:03:39;;;;;;;2.92;0.85;;;;;;;15.17;61.95;100318.66;10478677;28;20044;-71
2021/08/09 05:08:47;;;;;;;2.15;0.68;;;;;;;15.33;61.50;100297.63;10477928;28;20090;-71
2021/08/09 05:13:49;;;;;;;2.28;0.80;;;;;;;15.59;60.83;100309.66;10477132;28;20114;-72
2021/08/09 05:18:52;;;;;;;2.97;0.73;;;;;;;15.94;59.93;100321.22;10476429;28;20476;-72
2021/08/09 05:23:54;;;;;;;3.47;1.05;;;;;;;16.10;60.08;100337.22;10476110;28;20056;-71
2021/08/09 05:28:58;;;;;;;1.67;0.52;;;;;;;16.50;58.74;100332.53;10495515;28;20044;-71
2021/08/09 05:34:00;;;;;;;2.72;0.80;;;;;;;16.62;58.82;100339.88;10459746;28;20049;-72
2021/08/09 05:39:04;;;;;;;1.40;0.90;;;;;;;16.91;57.81;100346.34;10459591;28;20227;-72
2021/08/09 05:44:06;;;;;;;1.75;0.82;;;;;;;16.93;59.30;100341.81;10474788;28;20062;-72
2021/08/09 05:49:10;;;;;;;1.75;0.90;;;;;;;17.07;58.71;100338.41;10474642;28;20131;-72
2021/08/09 05:54:12;;;;;;;2.10;0.60;;;;;;;17.24;58.89;100342.81;10476247;28;20082;-72
2021/08/09 05:59:14;;;;;;;1.13;0.80;;;;;;;17.67;57.14;100341.31;10474932;28;20044;-72
2021/08/09 06:04:18;;;;;;;1.67;0.70;;;;;;;17.71;56.80;100336.66;10457838;28;20474;-72
2021/08/09 06:09:21;;;;;;;2.58;0.73;;;;;;;18.27;56.95;100343.22;10473752;28;20063;-71
2021/08/09 06:14:24;;;;;;;1.45;0.60;;;;;;;19.35;53.01;100335.75;10473999;28;20435;-72
2021/08/09 06:19:26;;;;;;;3.00;0.73;;;;;;;19.81;51.91;100344.34;10474167;28;20044;-72
2021/08/09 06:24:27;;;;;;;3.03;0.65;;;;;;;19.78;51.18;100346.34;10492208;28;20041;-72
2021/08/09 06:29:30;;;;;;;1.77;0.90;;;;;;;20.24;49.77;100351.34;10457577;28;20052;-71
2021/08/09 06:34:32;;;;;;;1.80;0.60;;;;;;;20.56;49.41;100341.19;10473297;28;20063;-72
2021/08/09 06:39:34;;;;;;;1.15;0.68;;;;;;;20.50;47.95;100346.94;10473211;28;20085;-72
2021/08/09 06:44:36;;;;;;;4.13;0.75;;;;;;;20.47;49.40;100350.63;10490733;28;20417;-72
2021/08/09 06:49:39;;;;;;;2.47;0.70;;;;;;;20.40;47.00;100354.66;10472575;28;20458;-69
2021/08/09 06:54:40;;;;;;;2.40;0.90;;;;;;;20.18;47.97;100347.25;10473081;28;20094;-71
2021/08/09 06:59:50;;;;;;;1.23;0.60;;;;;;;20.28;48.58;100355.53;10473058;28;20043;-70
2021/08/09 07:04:55;;;;;;;1.17;0.60;;;;;;;20.24;48.05;100356.69;10490795;28;20524;-71
2021/08/09 07:09:58;;;;;;;1.17;0.65;;;;;;;20.36;48.33;100351.38;10472459;28;20044;-71
2021/08/09 07:15:04;;;;;;;1.40;0.60;;;;;;;20.46;47.49;100353.44;10457079;28;20074;-70
2021/08/09 07:20:09;;;;;;;1.85;0.50;;;;;;;20.33;47.64;100348.91;10473022;28;20512;-70
2021/08/09 07:25:15;;;;;;;1.95;0.63;;;;;;;20.35;47.81;100354.13;10472001;28;20147;-71
2021/08/09 07:30:18;;;;;;;2.38;0.70;;;;;;;20.29;48.97;100352.72;10457025;28;20066;-70
2021/08/09 07:35:24;;;;;;;1.48;0.63;;;;;;;20.46;48.79;100354.28;10472538;28;20052;-71
2021/08/09 07:40:26;;;;;;;1.67;0.60;;;;;;;20.74;48.30;100341.72;10471609;28;20578;-71
2021/08/09 07:45:35;;;;;;;2.15;0.80;;;;;;;21.28;46.93;100339.66;10456901;28;20136;-70
2021/08/09 07:50:39;;;;;;;1.98;0.68;;;;;;;21.28;47.95;100345.00;10472095;28;20405;-70
2021/08/09 07:55:44;;;;;;;1.77;0.77;;;;;;;21.46;48.82;100339.34;10472171;28;20421;-71
2021/08/09 08:00:46;;;;;;;2.05;0.90;;;;;;;21.44;47.19;100346.63;10472636;28;20354;-70
2021/08/09 08:05:48;;;;;;;1.58;0.80;;;;;;;21.54;47.82;100343.16;10472083;28;20056;-71
2021/08/09 08:10:52;;;;;;;0.80;0.30;;;;;;;21.29;47.21;100345.84;10474365;28;20383;-72
2021/08/09 08:15:54;;;;;;;1.75;0.70;;;;;;;21.09;49.49;100349.97;10463369;28;20137;-70
2021/08/09 08:20:56;;;;;;;1.45;0.65;;;;;;;21.46;46.86;100355.38;10496117;28;20037;-70
2021/08/09 08:25:57;;;;;;;1.38;0.70;;;;;;;21.72;46.91;100354.34;10479636;28;20044;-72
2021/08/09 08:31:00;;;;;;;1.92;0.60;;;;;;;22.32;46.32;100357.97;10483402;28;20040;-70
2021/08/09 08:36:02;;;;;;;2.53;0.80;;;;;;;22.66;44.37;100351.72;10496268;28;20064;-71
2021/08/09 08:41:05;;;;;;;1.77;0.70;;;;;;;22.89;44.24;100347.31;10495939;28;20036;-71
2021/08/09 08:46:09;;;;;;;1.25;0.68;;;;;;;22.81;45.05;100346.19;10477937;28;20109;-72
2021/08/09 08:51:15;;;;;;;0.73;0.50;;;;;;;22.90;42.25;100345.50;10477897;28;20056;-71
2021/08/09 08:56:18;;;;;;;1.13;0.45;;;;;;;22.77;43.46;100345.56;10478691;28;20084;-70
2021/08/09 09:01:34;;;;;;;2.78;0.63;;;;;;;23.11;43.40;100346.50;10476725;28;20125;-71
2021/08/09 09:06:42;;;;;;;0.65;0.50;;;;;;;23.55;42.94;100358.19;10495247;28;20041;-71
2021/08/09 09:11:44;;;;;;;0.82;0.50;;;;;;;23.92;40.54;100355.19;10490330;22;20044;-72
2021/08/09 09:16:48;;;;;;;1.45;0.40;;;;;;;24.18;40.41;100347.66;10498251;28;20044;-72
2021/08/09 09:21:49;;;;;;;1.08;0.60;;;;;;;24.29;41.12;100349.44;10495926;28;20110;-72
2021/08/09 09:26:58;;;;;;;2.88;0.60;;;;;;;24.36;40.09;100354.16;10479980;28;20089;-72
2021/08/09 09:32:12;;;;;;;2.30;0.60;;;;;;;23.85;39.52;100345.94;10479767;28;20040;-72
2021/08/09 09:37:38;;;;;;;1.45;0.50;;;;;;;23.66;41.32;100344.75;10497517;28;20056;-72
2021/08/09 09:42:43;;;;;;;2.35;0.60;;;;;;;23.28;41.63;100341.59;10496481;28;20040;-72
2021/08/09 09:47:45;;;;;;;2.03;0.60;;;;;;;23.09;41.66;100356.47;10496200;28;20120;-71
2021/08/09 09:52:47;;;;;;;1.58;0.70;;;;;;;22.90;43.43;100348.16;10477551;28;20520;-72
2021/08/09 09:57:49;;;;;;;1.63;0.60;;;;;;;22.80;41.93;100345.31;10477860;28;20048;-73
2021/08/09 10:02:51;;;;;;;1.67;0.60;;;;;;;22.37;44.35;100350.44;10477850;28;20048;-72
2021/08/09 10:07:54;;;;;;;0.82;0.50;;;;;;;22.60;43.59;100354.88;10495398;28;20060;-72
2021/08/09 10:12:56;;;;;;;1.02;0.60;;;;;;;22.80;42.89;100352.47;10460707;28;20088;-72
2021/08/09 10:17:58;;;;;;;1.55;0.50;;;;;;;22.99;43.08;100352.81;10496268;28;20109;-72
2021/08/09 10:23:03;;;;;;;1.20;0.60;;;;;;;23.20;42.56;100342.22;10494767;28;20100;-72
2021/08/09 10:28:05;;;;;;;0.65;0.43;;;;;;;24.21;42.30;100350.06;10495034;28;20041;-73
2021/08/09 10:33:09;;;;;;;1.25;0.60;;;;;;;24.74;44.82;100343.84;10495147;28;20041;-72
2021/08/09 10:38:22;;;;;;;0.75;0.50;;;;;;;25.32;40.13;100341.47;10495866;28;20048;-72
2021/08/09 10:43:24;;;;;;;2.00;0.85;;;;;;;26.26;38.22;100328.50;10476513;28;20107;-72
2021/08/09 10:48:45;;;;;;;0.50;0.40;;;;;;;26.06;38.21;100325.78;10495154;28;20485;-72
2021/08/09 10:53:48;;;;;;;1.63;0.50;;;;;;;26.38;38.02;100328.19;10460872;28;20056;-73
2021/08/09 10:58:52;;;;;;;1.15;0.40;;;;;;;26.64;34.92;100322.22;10494670;28;20154;-72
2021/08/09 11:04:07;;;;;;;1.25;0.50;;;;;;;25.62;35.86;100324.44;10494686;28;20102;-72
2021/08/09 11:09:30;;;;;;;1.67;0.57;;;;;;;24.63;37.70;100339.41;10477277;28;20037;-72
2021/08/09 11:14:52;;;;;;;1.83;0.65;;;;;;;24.14;40.56;100338.16;10475251;28;20044;-72
2021/08/09 11:20:15;;;;;;;0.80;0.50;;;;;;;24.32;42.24;100333.91;10494553;28;20099;-72
2021/08/09 11:25:29;;;;;;;0.80;0.60;;;;;;;24.26;41.75;100330.88;10476219;28;20045;-73
2021/08/09 11:30:47;;;;;;;1.90;0.73;;;;;;;24.88;40.81;100330.94;10494443;28;20447;-72
2021/08/09 11:35:49;;;;;;;1.38;0.90;;;;;;;25.49;38.95;100319.28;10476086;28;20102;-73
2021/08/09 11:40:54;;;;;;;1.63;0.50;;;;;;;24.68;40.03;100323.72;10458795;28;20048;-72
2021/08/09 11:46:05;;;;;;;0.80;0.50;;;;;;;24.74;38.37;100331.25;10495534;28;20072;-72
2021/08/09 11:51:15;;;;;;;2.20;0.60;;;;;;;24.71;38.61;100331.53;10482884;28;20119;-72
2021/08/09 11:56:24;;;;;;;1.77;0.50;;;;;;;25.22;38.16;100327.13;10483994;28;20071;-72
2021/08/09 12:01:40;;;;;;;0.77;0.50;;;;;;;25.42;39.00;100310.09;10501399;28;20046;-72
2021/08/09 12:06:49;;;;;;;;;;;;;;;26.19;37.31;100303.97;10499878;28;20040;-72
2021/08/09 12:11:59;;;;;;;0.73;0.43;;;;;;;25.96;36.76;100310.63;10499493;28;19920;-72
2021/08/09 12:17:12;;;;;;;1.02;0.50;;;;;;;25.83;37.04;100314.44;10499037;28;20056;-73
2021/08/09 12:22:30;;;;;;;1.08;0.50;;;;;;;25.63;36.77;100318.03;10498988;28;20136;-73
2021/08/09 12:27:31;;;;;;;1.40;0.60;;;;;;;25.54;36.07;100306.25;10498322;28;20140;-73
2021/08/09 12:32:35;;;;;;;2.03;0.60;;;;;;;25.49;36.61;100307.69;10480299;28;20486;-72
2021/08/09 12:37:38;;;;;;;2.03;0.60;;;;;;;25.42;35.74;100296.63;10499354;28;20055;-72
2021/08/09 12:42:41;;;;;;;2.15;0.85;;;;;;;26.32;36.65;100291.03;10499239;28;20044;-72
2021/08/09 12:47:42;;;;;;;1.90;0.63;;;;;;;26.52;34.00;100288.34;10480861;28;20102;-72
2021/08/09 12:52:44;;;;;;;1.60;0.70;;;;;;;26.31;34.79;100283.09;10480291;28;20246;-71
2021/08/09 12:57:52;;;;;;;0.75;0.50;;;;;;;26.44;34.23;100278.28;10480339;28;20505;-73
2021/08/09 13:02:53;;;;;;;1.55;0.40;;;;;;;26.81;34.02;100278.31;10480405;28;20037;-72
2021/08/09 13:07:59;;;;;;;0.50;0.32;;;;;;;27.01;32.83;100279.13;10498910;28;20083;-71
2021/08/09 13:13:00;;;;;;;2.03;0.55;;;;;;;26.75;31.00;100278.06;10479521;28;20183;-71
2021/08/09 13:18:02;;;;;;;0.98;0.40;;;;;;;26.42;31.18;100285.63;10479378;28;20054;-72
2021/08/09 13:23:04;;;;;;;1.83;0.60;;;;;;;26.57;32.18;100272.59;10497264;28;20132;-72
2021/08/09 13:28:05;;;;;;;1.15;0.43;;;;;;;26.50;30.96;100266.06;10479921;28;20040;-72
2021/08/09 13:33:07;;;;;;;1.25;0.50;;;;;;;26.50;32.93;100268.78;10497787;28;20171;-73
2021/08/09 13:38:09;;;;;;;1.20;0.50;;;;;;;26.61;31.71;100266.75;10478259;28;20048;-71
2021/08/09 13:43:13;;;;;;;1.90;0.60;;;;;;;26.21;32.96;100261.56;10478182;28;20063;-72
2021/08/09 13:48:15;;;;;;;1.33;0.50;;;;;;;25.85;33.71;100269.38;10479221;28;20119;-72
2021/08/09 13:53:16;;;;;;;1.63;0.60;;;;;;;26.07;34.19;100261.97;10496747;28;20076;-72
2021/08/09 13:58:18;;;;;;;1.95;0.60;;;;;;;26.20;34.41;100259.00;10495586;28;20044;-72
2021/08/09 14:03:20;;;;;;;1.55;0.70;;;;;;;26.24;32.32;100255.03;10495571;28;20037;-70
2021/08/09 14:08:21;;;;;;;1.02;0.60;;;;;;;25.73;33.22;100251.63;10495584;28;20048;-71
2021/08/09 14:13:23;;;;;;;1.92;0.60;;;;;;;25.80;34.74;100242.00;10476479;28;20045;-71
2021/08/09 14:18:24;;;;;;;2.72;0.63;;;;;;;25.80;31.99;100236.63;10476775;28;20049;-69
2021/08/09 14:23:29;;;;;;;1.05;0.70;;;;;;;25.69;34.17;100252.03;10476329;28;20071;-70
2021/08/09 14:28:32;;;;;;;0.52;0.40;;;;;;;25.35;32.49;100244.34;10477795;28;20385;-72
2021/08/09 14:33:34;;;;;;;1.30;0.60;;;;;;;25.30;33.10;100246.59;10477790;28;20040;-72
2021/08/09 14:38:39;;;;;;;0.90;0.57;;;;;;;25.14;35.23;100245.25;10460195;28;20075;-71
2021/08/09 14:43:45;;;;;;;1.15;0.60;;;;;;;25.02;33.70;100246.34;10495862;28;20040;-73
2021/08/09 14:48:47;;;;;;;1.38;0.50;;;;;;;24.99;33.96;100248.47;10477744;28;20067;-72
2021/08/09 14:53:50;;;;;;;1.23;0.60;;;;;;;25.02;34.92;100242.81;10480000;28;20064;-72
2021/08/09 14:58:55;;;;;;;2.88;0.75;;;;;;;24.74;34.60;100247.06;10463209;28;20053;-72
2021/08/09 15:03:57;;;;;;;1.23;0.68;;;;;;;24.34;35.73;100245.13;10480576;28;20155;-72
2021/08/09 15:09:11;;;;;;;1.10;0.52;;;;;;;24.75;35.62;100238.88;10499093;28;20040;-74
2021/08/09 15:14:13;;;;;;;1.58;0.65;;;;;;;25.04;36.60;100232.75;10506525;22;20044;-69
2021/08/09 15:19:14;;;;;;;0.93;0.55;;;;;;;24.78;35.80;100232.38;10491667;28;20489;-69
2021/08/09 15:24:16;;;;;;;1.20;0.70;;;;;;;24.91;35.40;100227.63;10498149;28;20052;-70
2021/08/09 15:29:18;;;;;;;1.23;0.50;;;;;;;24.98;34.27;100225.25;10499141;28;20052;-71
2021/08/09 15:34:20;;;;;;;3.03;0.70;;;;;;;25.28;34.46;100227.03;10498830;28;20051;-69
2021/08/09 15:39:21;;;;;;;1.48;0.90;;;;;;;25.06;36.19;100226.25;10497575;28;20127;-69
2021/08/09 15:44:23;;;;;;;1.50;0.82;;;;;;;25.10;34.11;100214.28;10497931;28;20417;-70
2021/08/09 15:49:24;;;;;;;1.75;0.85;;;;;;;24.94;35.81;100210.38;10498212;28;20535;-70
2021/08/09 15:54:26;;;;;;;0.90;0.70;;;;;;;24.93;35.40;100220.28;10497013;28;20125;-69
2021/08/09 15:59:28;;;;;;;0.93;0.60;;;;;;;25.70;32.94;100221.44;10497052;28;20122;-69
2021/08/09 16:04:29;;;;;;;1.40;0.70;;;;;;;25.84;33.87;100221.88;10478702;28;20163;-69
2021/08/09 16:09:31;;;;;;;0.85;0.73;;;;;;;25.46;33.57;100229.94;10496411;28;20098;-71
2021/08/09 16:14:32;;;;;;;0.95;0.70;;;;;;;25.19;36.57;100219.78;10496445;28;20110;-70
2021/08/09 16:19:36;;;;;;;0.65;0.50;;;;;;;24.79;36.64;100213.44;10496168;28;20049;-70
2021/08/09 16:24:38;;;;;;;1.02;0.65;;;;;;;24.55;37.76;100212.88;10496878;28;20040;-70
2021/08/09 16:29:39;;;;;;;1.33;0.60;;;;;;;24.64;36.68;100221.00;10495857;28;20071;-69
2021/08/09 16:34:41;;;;;;;0.85;0.50;;;;;;;24.60;37.09;100216.03;10495259;28;20045;-70
2021/08/09 16:39:42;;;;;;;1.10;0.60;;;;;;;24.60;36.37;100214.19;10496118;28;20048;-70
2021/08/09 16:44:44;;;;;;;0.40;0.40;;;;;;;24.38;36.22;100222.41;10496114;28;20076;-70
2021/08/09 16:49:46;;;;;;;0.88;0.60;;;;;;;24.50;36.75;100217.81;10477604;28;20382;-71
2021/08/09 16:54:48;;;;;;;1.48;0.70;;;;;;;24.21;37.57;100217.59;10494847;28;20071;-70
2021/08/09 16:59:49;;;;;;;1.48;0.90;;;;;;;24.13;40.16;100216.44;10494738;28;20036;-70
2021/08/09 17:04:51;;;;;;;1.20;0.80;;;;;;;24.25;38.55;100211.84;10494170;28;20040;-69
2021/08/09 17:09:52;;;;;;;1.00;0.70;;;;;;;24.15;39.95;100219.84;10475924;28;20055;-71
2021/08/09 17:14:56;;;;;;;0.98;0.70;;;;;;;23.85;40.21;100215.22;10475742;28;20433;-70
2021/08/09 17:20:03;;;;;;;1.63;1.10;;;;;;;23.65;39.97;100211.56;10476181;28;20148;-70
2021/08/09 17:25:07;;;;;;;1.37;0.97;;;;;;;23.74;39.14;100209.94;10475612;28;20052;-70
2021/08/09 17:30:09;;;;;;;1.25;0.93;;;;;;;23.35;41.16;100211.38;10475566;28;20068;-70
2021/08/09 17:35:11;;;;;;;1.38;1.20;;;;;;;23.07;41.74;100210.97;10475307;28;20056;-70
2021/08/09 17:40:12;;;;;;;2.70;1.77;;;;;;;22.90;42.75;100211.47;10474822;28;20098;-70
2021/08/09 17:45:14;;;;;;;2.55;1.40;;;;;;;22.75;43.63;100210.81;10473558;28;20126;-70
2021/08/09 17:50:16;;;;;;;0.85;0.80;;;;;;;22.61;44.27;100206.56;10493008;28;20062;-69
2021/08/09 17:55:17;;;;;;;1.17;1.08;;;;;;;22.50;44.86;100224.47;10475292;28;20040;-70
2021/08/09 18:00:19;;;;;;;0.93;0.75;;;;;;;22.37;46.33;100224.56;10492645;28;20413;-70
2021/08/09 18:05:21;;;;;;;1.40;1.05;;;;;;;22.26;46.88;100230.75;10474788;28;20048;-70
2021/08/09 18:10:29;;;;;;;1.45;1.00;;;;;;;22.06;46.06;100231.41;10485919;28;20391;-70
2021/08/09 18:15:31;;;;;;;1.85;1.00;;;;;;;21.90;47.60;100229.03;10484383;28;20127;-69
2021/08/09 18:20:33;;;;;;;2.30;1.20;;;;;;;21.84;48.06;100222.31;10485474;28;20048;-71
2021/08/09 18:25:36;;;;;;;2.40;1.27;;;;;;;21.61;49.06;100229.41;10484465;28;20049;-70
2021/08/09 18:30:38;;;;;;;5.22;1.52;;;;;;;21.35;50.14;100239.34;10483333;28;20040;-70
2021/08/09 18:35:40;;;;;;;1.15;1.00;;;;;;;21.13;50.21;100228.50;10484140;28;20485;-70
2021/08/09 18:40:41;;;;;;;3.22;1.15;;;;;;;20.94;51.76;100249.47;10483940;28;20049;-70
2021/08/09 18:45:43;;;;;;;1.88;1.10;;;;;;;20.86;50.94;100244.69;10483539;28;20117;-70
2021/08/09 18:50:45;;;;;;;2.30;1.20;;;;;;;20.61;52.21;100254.44;10481993;28;20048;-70
2021/08/09 18:55:47;;;;;;;1.42;1.00;;;;;;;20.58;51.85;100264.47;10483650;28;20450;-70
2021/08/09 19:00:48;;;;;;;8.55;1.20;;;;;;;20.59;51.50;100271.53;10483278;28;20413;-71
2021/08/09 19:05:52;;;;;;;7.63;1.70;;;;;;;20.37;53.27;100274.81;10481294;28;20055;-70
2021/08/09 19:10:54;;;;;;;4.68;1.40;;;;;;;20.19;53.77;100276.91;10482492;28;20119;-70
2021/08/09 19:15:57;;;;;;;2.58;1.30;;;;;;;20.12;54.48;100278.28;10480604;28;20067;-70
2021/08/09 19:20:58;;;;;;;1.63;1.48;;;;;;;20.11;53.33;100281.91;10459041;28;20124;-71
2021/08/09 19:26:00;;;;;;;2.17;1.52;;;;;;;20.03;53.68;100282.41;10452768;28;20048;-69
2021/08/09 19:31:02;;;;;;;2.58;1.50;;;;;;;20.07;53.83;100288.41;10452614;28;20072;-70
2021/08/09 19:36:04;;;;;;;3.58;1.88;;;;;;;20.01;54.35;100287.00;10452933;28;20151;-70
2021/08/09 19:41:05;;;;;;;2.63;1.25;;;;;;;20.04;53.18;100285.94;10453638;28;20126;-71
2021/08/09 19:46:07;;;;;;;2.70;1.33;;;;;;;20.08;52.57;100290.13;10453555;28;20127;-70
2021/08/09 19:51:13;;;;;;;2.35;1.25;;;;;;;19.99;52.91;100283.56;10453378;28;20068;-69
2021/08/09 19:56:18;;;;;;;2.67;1.15;;;;;;;20.12;52.75;100283.63;10451552;28;20122;-70
2021/08/09 20:01:19;;;;;;;3.17;1.10;;;;;;;20.19;52.19;100284.03;10452590;28;20143;-70
2021/08/09 20:06:21;;;;;;;2.03;1.00;;;;;;;20.18;52.29;100277.84;10451155;28;20056;-71
2021/08/09 20:11:23;;;;;;;3.05;0.98;;;;;;;20.00;52.87;100290.63;10451308;28;20470;-70
2021/08/09 20:16:24;;;;;;;1.92;1.20;;;;;;;19.80;53.39;100291.09;10450817;28;20537;-71
2021/08/09 20:21:26;;;;;;;1.58;0.98;;;;;;;19.73;53.40;100284.44;10452449;28;20049;-71
2021/08/09 20:26:28;;;;;;;1.65;1.10;;;;;;;19.68;53.27;100279.41;10452360;28;20037;-70
2021/08/09 20:31:30;;;;;;;1.13;0.90;;;;;;;19.69;53.34;100278.47;10450818;28;20078;-69
2021/08/09 20:36:32;;;;;;;1.42;1.20;;;;;;;19.61;52.98;100279.00;10451202;28;20159;-69
2021/08/09 20:41:35;;;;;;;1.83;0.80;;;;;;;19.53;52.92;100278.59;10450149;28;20223;-68
2021/08/09 20:46:37;;;;;;;1.77;1.00;;;;;;;19.48;53.38;100275.38;10449294;28;20102;-69
2021/08/09 20:51:38;;;;;;;1.10;1.00;;;;;;;19.19;54.71;100277.22;10450996;28;20489;-70
2021/08/09 20:56:40;;;;;;;1.20;0.90;;;;;;;19.07;53.96;100283.31;10451300;28;20243;-70
2021/08/09 21:01:42;;;;;;;1.30;0.90;;;;;;;19.21;53.90;100280.63;10450783;28;20110;-70
2021/08/09 21:06:44;;;;;;;1.25;0.93;;;;;;;19.01;54.71;100287.25;10450503;28;20048;-69
2021/08/09 21:11:46;;;;;;;1.27;0.90;;;;;;;18.86;55.09;100278.41;10449101;28;20470;-70
2021/08/09 21:16:48;;;;;;;1.40;0.80;;;;;;;18.77;55.64;100283.44;10467108;22;20045;-71
2021/08/09 21:21:49;;;;;;;1.73;1.15;;;;;;;18.70;55.89;100293.63;10437208;28;20469;-70
2021/08/09 21:26:51;;;;;;;1.98;1.10;;;;;;;18.56;56.31;100298.91;10437124;28;20044;-72
2021/08/09 21:31:52;;;;;;;1.83;0.90;;;;;;;18.51;56.26;100303.66;10455267;28;20087;-71
2021/08/09 21:36:54;;;;;;;2.78;2.58;;;;;;;18.39;56.75;100306.09;10436104;28;20051;-70
2021/08/09 21:41:56;;;;;;;1.33;1.15;;;;;;;18.39;56.49;100302.56;10454150;28;20415;-71
2021/08/09 21:46:59;;;;;;;2.35;1.30;;;;;;;17.96;57.53;100326.38;10454267;28;20095;-72
2021/08/09 21:52:01;;;;;;;1.92;1.00;;;;;;;17.75;57.63;100327.59;10435492;28;20049;-71
2021/08/09 21:57:05;;;;;;;2.30;1.00;;;;;;;17.92;57.47;100332.81;10454272;28;20120;-71
2021/08/09 22:02:06;;;;;;;3.15;1.10;;;;;;;17.77;59.09;100334.56;10453844;28;20126;-70
2021/08/09 22:07:08;;;;;;;1.73;1.10;;;;;;;17.74;60.24;100337.38;10453679;28;20041;-71
2021/08/09 22:12:10;;;;;;;2.17;1.27;;;;;;;17.51;60.21;100332.47;10452967;28;20588;-70
2021/08/09 22:17:12;;;;;;;2.92;1.33;;;;;;;17.58;60.41;100336.50;10453986;28;20045;-71
2021/08/09 22:22:13;;;;;;;3.33;1.20;;;;;;;17.24;61.52;100335.69;10452372;28;20033;-70
2021/08/09 22:27:15;;;;;;;2.25;1.20;;;;;;;17.22;61.97;100345.56;10452733;28;20041;-71
2021/08/09 22:32:16;;;;;;;1.77;1.50;;;;;;;17.47;60.83;100342.41;10453411;28;20413;-71
2021/08/09 22:37:18;;;;;;;1.85;1.42;;;;;;;17.20;62.51;100357.22;10452932;28;20041;-71
2021/08/09 22:42:20;;;;;;;2.20;1.02;;;;;;;17.33;61.19;100366.22;10419269;28;20556;-70
2021/08/09 22:47:36;;;;;;;2.90;1.25;;;;;;;16.95;62.20;100363.81;10434263;28;20087;-70
2021/08/09 22:52:38;;;;;;;1.77;1.20;;;;;;;16.49;64.44;100365.31;10453387;28;20044;-70
2021/08/09 22:57:40;;;;;;;1.17;0.90;;;;;;;16.59;64.46;100359.47;10460509;28;20128;-71
2021/08/09 23:02:41;;;;;;;1.60;1.30;;;;;;;16.51;65.23;100371.41;10461211;28;20058;-71
2021/08/09 23:07:43;;;;;;;1.45;1.20;;;;;;;16.64;64.81;100369.84;10460192;28;20119;-70
2021/08/09 23:12:44;;;;;;;1.92;1.40;;;;;;;16.70;64.49;100374.00;10459608;28;20048;-70
2021/08/09 23:17:46;;;;;;;2.35;1.60;;;;;;;16.42;66.00;100374.53;10459742;28;20057;-71